Time;durP1;ratioP1;P1;durP2;ratioP2;P2;SDS_P1;SDS_P2;PMS_P1;PMS_P2;Temp;Humidity;BMP_temperature;BMP_pressure;BME280_temperature;BME280_humidity;BME280_pressure;Samples;Min_cycle;Max_cycle;Signal;HPM_P1;HPM_P2
2022/07/30 00:01:42;;;;;;;;;;;;;;;18.52;81.75;98281.61;105936;1283;23309;-83
2022/07/30 00:04:12;;;;;;;;;;;;;;;18.51;81.94;98283.32;105605;1284;124679;-84
2022/07/30 00:06:38;;;;;;;;;;;;;;;18.51;81.77;98285.20;105924;1284;22560;-83
2022/07/30 00:09:04;;;;;;;;;;;;;;;18.49;81.85;98285.90;106060;1284;124354;-83
2022/07/30 00:11:30;;;;;;;;;;;;;;;18.45;81.98;98282.27;105961;1282;26496;-83
2022/07/30 00:13:56;;;;;;;;;;;;;;;18.40;81.88;98281.68;106098;1284;22549;-83
2022/07/30 00:16:22;;;;;;;;;;;;;;;18.35;82.02;98275.65;105642;1284;125813;-83
2022/07/30 00:18:49;;;;;;;;;;;;;;;18.29;82.26;98271.77;105785;1282;22551;-83
2022/07/30 00:21:14;;;;;;;;;;;;;;;18.23;82.42;98265.52;105600;1284;124760;-83
2022/07/30 00:23:40;;;;;;;;;;;;;;;18.20;82.72;98262.49;105947;1284;24456;-83
2022/07/30 00:26:06;;;;;;;;;;;;;;;18.16;82.82;98257.48;105854;1284;22574;-83
2022/07/30 00:28:32;;;;;;;;;;;;;;;18.14;83.01;98253.65;105813;1284;124618;-83
2022/07/30 00:31:00;;;;;;;;;;;;;;;18.11;83.11;98251.55;105718;1284;24313;-82
2022/07/30 00:33:26;;;;;;;;;;;;;;;18.11;83.46;98250.13;105734;1284;124872;-82
2022/07/30 00:35:52;;;;;;;;;;;;;;;18.06;83.55;98248.38;105753;1285;25262;-82
2022/07/30 00:38:18;;;;;;;;;;;;;;;18.01;83.69;98245.24;105711;1284;22804;-83
2022/07/30 00:40:48;;;;;;;;;;;;;;;17.99;84.08;98240.48;105713;1284;124068;-82
2022/07/30 00:43:15;;;;;;;;;;;;;;;17.99;84.32;98238.02;105453;1284;22637;-82
2022/07/30 00:45:42;;;;;;;;;;;;;;;17.99;84.47;98233.05;105847;1284;125020;-82
2022/07/30 00:48:09;;;;;;;;;;;;;;;17.96;84.38;98233.25;105616;1284;22560;-82
2022/07/30 00:50:36;;;;;;;;;;;;;;;17.94;84.73;98227.02;105802;1284;25260;-83
2022/07/30 00:53:02;;;;;;;;;;;;;;;17.92;85.01;98221.52;105452;1284;125190;-82
2022/07/30 00:55:31;;;;;;;;;;;;;;;17.91;84.86;98222.48;105779;1283;22595;-82
2022/07/30 00:57:58;;;;;;;;;;;;;;;17.90;85.21;98223.39;106164;1282;124677;-82
2022/07/30 01:00:24;;;;;;;;;;;;;;;17.90;85.09;98219.96;105917;1282;24330;-82
2022/07/30 01:02:50;;;;;;;;;;;;;;;17.91;85.29;98218.23;105948;1282;22584;-82
2022/07/30 01:05:17;;;;;;;;;;;;;;;17.90;85.39;98212.96;105805;1282;124563;-82
2022/07/30 01:07:43;;;;;;;;;;;;;;;17.89;85.46;98212.70;105982;1282;24323;-82
2022/07/30 01:10:10;;;;;;;;;;;;;;;17.90;85.54;98210.27;105762;1282;124872;-82
2022/07/30 01:12:36;;;;;;;;;;;;;;;17.93;85.68;98206.37;105697;1282;22556;-82
2022/07/30 01:15:04;;;;;;;;;;;;;;;17.98;85.78;98208.10;105988;1282;125329;-83
2022/07/30 01:17:30;;;;;;;;;;;;;;;17.99;85.51;98204.45;105760;1282;22831;-82
2022/07/30 01:19:59;;;;;;;;;;;;;;;18.00;85.63;98199.20;105724;1284;25434;-83
2022/07/30 01:22:25;;;;;;;;;;;;;;;18.05;85.65;98201.27;105688;1282;124786;-83
2022/07/30 01:25:02;;;;;;;;;;;;;;;18.05;85.50;98199.73;105686;1284;25332;-83
2022/07/30 01:27:30;;;;;;;;;;;;;;;18.09;85.70;98205.72;105689;1284;124949;-82
2022/07/30 01:29:57;;;;;;;;;;;;;;;18.17;85.89;98207.23;105763;1284;22703;-83
2022/07/30 01:32:24;;;;;;;;;;;;;;;18.24;85.60;98199.23;105805;1284;24354;-83
2022/07/30 01:35:06;;;;;;;;;;;;;;;18.32;85.37;98198.11;105715;1284;125069;-83
2022/07/30 01:37:32;;;;;;;;;;;;;;;18.37;85.02;98195.77;105646;1284;23308;-83
2022/07/30 01:39:59;;;;;;;;;;;;;;;18.38;84.92;98183.52;105556;1284;124755;-82
2022/07/30 01:42:27;;;;;;;;;;;;;;;18.37;84.80;98180.77;105528;1284;22562;-82
2022/07/30 01:44:54;;;;;;;;;;;;;;;18.36;84.80;98174.17;105698;1284;22558;-82
2022/07/30 01:47:21;;;;;;;;;;;;;;;18.36;84.81;98168.94;105733;1282;124282;-82
2022/07/30 01:49:48;;;;;;;;;;;;;;;18.36;84.86;98167.39;105923;1282;22546;-81
2022/07/30 01:52:16;;;;;;;;;;;;;;;18.39;84.88;98160.01;105803;1282;125273;-82
2022/07/30 01:54:43;;;;;;;;;;;;;;;18.41;84.78;98158.20;106224;1284;29684;-82
2022/07/30 01:57:09;;;;;;;;;;;;;;;18.41;84.60;98156.65;105689;1284;124968;-82
2022/07/30 01:59:36;;;;;;;;;;;;;;;18.42;84.58;98158.98;105512;1284;23913;-81
2022/07/30 02:02:02;;;;;;;;;;;;;;;18.42;84.75;98154.27;105454;1282;22587;-81
2022/07/30 02:04:28;;;;;;;;;;;;;;;18.43;84.67;98155.57;105692;1284;124808;-82
2022/07/30 02:07:08;;;;;;;;;;;;;;;18.44;84.55;98156.27;106042;1284;23254;-82
2022/07/30 02:09:36;;;;;;;;;;;;;;;18.45;84.71;98152.89;105964;1284;124265;-82
2022/07/30 02:14:52;;;;;;;;;;;;;;;18.48;84.38;98153.21;105726;1284;22748;-81
2022/07/30 02:17:25;;;;;;;;;;;;;;;18.50;84.45;98151.10;106137;1284;124430;-82
2022/07/30 02:19:53;;;;;;;;;;;;;;;18.52;84.53;98153.09;105898;1284;24992;-82
2022/07/30 02:22:21;;;;;;;;;;;;;;;18.53;84.44;98156.72;105873;1284;124946;-82
2022/07/30 02:24:48;;;;;;;;;;;;;;;18.54;84.37;98152.11;105935;1284;22717;-82
2022/07/30 02:27:23;;;;;;;;;;;;;;;18.55;84.08;98144.30;106066;1284;124836;-82
2022/07/30 02:29:51;;;;;;;;;;;;;;;18.56;83.99;98141.11;105911;1284;23299;-82
2022/07/30 02:32:19;;;;;;;;;;;;;;;18.54;84.03;98139.42;106325;1284;22551;-82
2022/07/30 02:34:48;;;;;;;;;;;;;;;18.56;84.27;98139.23;106059;1284;125885;-82
2022/07/30 02:37:17;;;;;;;;;;;;;;;18.57;84.14;98137.21;106616;1282;24262;-82
2022/07/30 02:39:47;;;;;;;;;;;;;;;18.59;84.13;98131.67;106270;1282;124932;-82
2022/07/30 02:42:14;;;;;;;;;;;;;;;18.57;83.96;98128.40;105921;1284;24272;-82
2022/07/30 02:44:41;;;;;;;;;;;;;;;18.54;83.90;98128.95;105968;1284;24333;-82
2022/07/30 02:47:08;;;;;;;;;;;;;;;18.49;83.99;98128.38;106116;1285;124831;-82
2022/07/30 02:50:01;;;;;;;;;;;;;;;18.51;84.27;98132.88;106206;1284;22550;-82
2022/07/30 02:52:29;;;;;;;;;;;;;;;18.52;84.21;98134.89;105872;1284;124230;-82
2022/07/30 02:54:56;;;;;;;;;;;;;;;18.55;84.28;98140.52;106657;1284;24214;-83
2022/07/30 02:57:23;;;;;;;;;;;;;;;18.55;84.39;98139.02;106702;1285;124240;-82
2022/07/30 02:59:49;;;;;;;;;;;;;;;18.55;84.30;98137.77;106306;1284;23231;-82
2022/07/30 03:02:16;;;;;;;;;;;;;;;18.55;84.09;98139.50;106409;1284;22547;-82
2022/07/30 03:04:42;;;;;;;;;;;;;;;18.55;84.04;98136.98;105928;1284;124778;-82
2022/07/30 03:07:09;;;;;;;;;;;;;;;18.56;84.26;98137.58;106303;1284;22708;-82
2022/07/30 03:09:37;;;;;;;;;;;;;;;18.58;84.20;98135.43;105902;1284;124770;-82
2022/07/30 03:12:05;;;;;;;;;;;;;;;18.62;84.25;98136.73;106022;1284;25337;-82
2022/07/30 03:14:31;;;;;;;;;;;;;;;18.66;84.16;98137.05;106068;1284;22531;-82
2022/07/30 03:16:58;;;;;;;;;;;;;;;18.66;83.92;98143.77;105959;1284;124679;-82
2022/07/30 03:19:26;;;;;;;;;;;;;;;18.69;84.03;98145.48;105879;1282;22547;-82
2022/07/30 03:21:53;;;;;;;;;;;;;;;18.73;83.95;98148.66;105774;1284;124706;-82
2022/07/30 03:24:22;;;;;;;;;;;;;;;18.75;83.78;98152.64;106323;1284;23192;-81
2022/07/30 03:26:50;;;;;;;;;;;;;;;18.78;83.83;98145.23;106178;1284;23220;-81
2022/07/30 03:29:17;;;;;;;;;;;;;;;18.81;83.63;98140.83;106137;1285;124452;-82
2022/07/30 03:31:43;;;;;;;;;;;;;;;18.83;83.38;98142.92;106117;1282;23191;-81
2022/07/30 03:34:10;;;;;;;;;;;;;;;18.85;83.50;98141.71;105668;1284;126418;-82
2022/07/30 03:36:51;;;;;;;;;;;;;;;18.84;83.58;98139.14;105744;1284;32142;-81
2022/07/30 03:39:18;;;;;;;;;;;;;;;18.88;83.53;98140.71;105814;1284;124766;-82
2022/07/30 03:41:45;;;;;;;;;;;;;;;18.86;83.02;98140.98;106005;1285;25259;-81
2022/07/30 03:44:14;;;;;;;;;;;;;;;18.79;83.11;98136.79;106111;1284;25646;-81
2022/07/30 03:46:40;;;;;;;;;;;;;;;18.72;83.23;98139.52;105810;1284;125053;-84
2022/07/30 03:49:08;;;;;;;;;;;;;;;18.66;83.47;98146.77;105724;1285;22673;-83
2022/07/30 03:51:38;;;;;;;;;;;;;;;18.63;83.75;98152.55;105850;1284;125026;-82
2022/07/30 03:54:08;;;;;;;;;;;;;;;18.62;83.84;98154.48;106038;1284;25309;-82
2022/07/30 03:56:34;;;;;;;;;;;;;;;18.63;84.14;98156.46;105842;1284;22561;-82
2022/07/30 03:59:20;;;;;;;;;;;;;;;18.60;83.89;98159.34;105649;1284;124913;-82
2022/07/30 04:01:49;;;;;;;;;;;;;;;18.59;84.03;98163.27;105717;1284;24318;-82
2022/07/30 04:04:34;;;;;;;;;;;;;;;18.58;84.05;98161.03;105799;1284;124901;-82
2022/07/30 04:07:01;;;;;;;;;;;;;;;18.56;84.08;98168.23;106068;1283;22838;-82
2022/07/30 04:09:28;;;;;;;;;;;;;;;18.56;84.41;98171.55;105782;1284;125120;-82
2022/07/30 04:11:54;;;;;;;;;;;;;;;18.60;84.57;98170.13;105849;1284;22691;-82
2022/07/30 04:14:25;;;;;;;;;;;;;;;18.65;84.60;98173.90;106155;1284;22563;-82
2022/07/30 04:17:03;;;;;;;;;;;;;;;18.71;84.53;98173.91;105923;1284;124689;-82
2022/07/30 04:19:42;;;;;;;;;;;;;;;18.75;84.38;98183.86;105526;1285;25328;-82
2022/07/30 04:22:10;;;;;;;;;;;;;;;18.79;84.36;98176.84;105763;1285;124132;-82
2022/07/30 04:24:38;;;;;;;;;;;;;;;18.78;84.03;98175.70;106078;1284;22544;-82
2022/07/30 04:27:07;;;;;;;;;;;;;;;18.77;83.97;98169.27;105618;1284;124414;-83
2022/07/30 04:29:34;;;;;;;;;;;;;;;18.73;83.85;98170.29;105761;1284;24232;-83
2022/07/30 04:32:06;;;;;;;;;;;;;;;18.71;83.99;98167.45;105991;1284;22704;-82
2022/07/30 04:34:32;;;;;;;;;;;;;;;18.72;84.28;98163.08;105679;1284;125133;-82
2022/07/30 04:37:00;;;;;;;;;;;;;;;18.74;84.24;98165.17;105921;1284;22699;-81
2022/07/30 04:39:28;;;;;;;;;;;;;;;18.75;84.30;98164.79;105834;1284;124814;-82
2022/07/30 04:41:54;;;;;;;;;;;;;;;18.78;84.37;98162.63;105751;1284;23338;-82
2022/07/30 04:44:41;;;;;;;;;;;;;;;18.81;84.62;98157.73;105710;1284;22569;-82
2022/07/30 04:47:22;;;;;;;;;;;;;;;18.87;84.60;98161.06;105836;1284;125112;-82
2022/07/30 04:50:01;;;;;;;;;;;;;;;18.94;84.54;98167.83;106001;1284;24400;-83
2022/07/30 04:52:27;;;;;;;;;;;;;;;18.99;84.61;98170.34;105773;1284;125202;-82
2022/07/30 04:54:56;;;;;;;;;;;;;;;19.03;84.24;98174.84;105853;1284;22585;-82
2022/07/30 04:57:25;;;;;;;;;;;;;;;19.06;84.10;98175.77;105712;1284;125231;-82
2022/07/30 04:59:51;;;;;;;;;;;;;;;19.07;84.01;98174.83;106084;1284;22570;-83
2022/07/30 05:02:19;;;;;;;;;;;;;;;19.09;83.81;98176.89;105755;1284;22691;-82
2022/07/30 05:04:46;;;;;;;;;;;;;;;19.13;84.17;98174.04;105840;1284;125157;-83
2022/07/30 05:07:13;;;;;;;;;;;;;;;19.19;83.93;98178.16;105724;1284;22691;-83
2022/07/30 05:09:40;;;;;;;;;;;;;;;19.21;83.75;98173.44;105833;1284;125168;-83
2022/07/30 05:12:06;;;;;;;;;;;;;;;19.22;83.72;98167.77;105715;1284;24550;-83
2022/07/30 05:14:35;;;;;;;;;;;;;;;19.27;83.91;98156.84;105781;1284;25259;-83
2022/07/30 05:17:02;;;;;;;;;;;;;;;19.31;83.85;98154.05;105980;1284;124381;-83
2022/07/30 05:19:28;;;;;;;;;;;;;;;19.36;83.97;98159.52;105694;1284;24609;-84
2022/07/30 05:21:54;;;;;;;;;;;;;;;19.42;83.99;98165.40;106072;1284;124700;-84
2022/07/30 05:24:20;;;;;;;;;;;;;;;19.49;83.80;98172.05;106121;1282;24310;-84
2022/07/30 05:26:55;;;;;;;;;;;;;;;19.56;83.72;98176.42;105767;1284;22559;-84
2022/07/30 05:29:21;;;;;;;;;;;;;;;19.58;82.95;98179.64;105801;1284;124984;-84
2022/07/30 05:31:51;;;;;;;;;;;;;;;19.61;83.10;98182.37;106028;1284;22586;-84
2022/07/30 05:34:17;;;;;;;;;;;;;;;19.64;82.82;98182.42;105757;1284;124321;-84
2022/07/30 05:36:44;;;;;;;;;;;;;;;19.67;82.88;98173.73;105913;1284;23411;-84
2022/07/30 05:39:12;;;;;;;;;;;;;;;19.72;82.85;98172.35;105860;1284;124297;-85
2022/07/30 05:42:01;;;;;;;;;;;;;;;19.75;82.75;98169.65;105814;1284;24460;-84
2022/07/30 05:44:34;;;;;;;;;;;;;;;19.81;82.71;98167.52;105750;1284;24395;-85
2022/07/30 05:47:01;;;;;;;;;;;;;;;19.90;82.89;98171.45;105727;1283;124725;-84
2022/07/30 05:49:27;;;;;;;;;;;;;;;20.00;82.77;98178.67;105806;1283;31487;-85
2022/07/30 05:51:57;;;;;;;;;;;;;;;20.07;82.44;98185.08;105873;1284;124677;-85
2022/07/30 05:54:22;;;;;;;;;;;;;;;20.12;82.22;98185.63;105727;1284;25448;-85
2022/07/30 05:57:11;;;;;;;;;;;;;;;20.18;82.36;98184.86;105465;1284;124091;-85
2022/07/30 05:59:39;;;;;;;;;;;;;;;20.24;82.16;98182.23;105952;1284;29854;-85
2022/07/30 06:02:09;;;;;;;;;;;;;;;20.26;81.85;98182.45;105800;1284;22560;-85
2022/07/30 06:05:01;;;;;;;;;;;;;;;20.30;81.71;98182.02;105645;1284;125562;-85
2022/07/30 06:07:28;;;;;;;;;;;;;;;20.35;81.58;98178.91;105698;1285;24221;-85
2022/07/30 06:09:58;;;;;;;;;;;;;;;20.42;81.71;98174.54;105903;1284;124505;-85
2022/07/30 06:12:26;;;;;;;;;;;;;;;20.46;81.42;98169.92;105773;1284;22540;-85
2022/07/30 06:14:52;;;;;;;;;;;;;;;20.46;81.13;98172.21;105516;1286;24299;-86
2022/07/30 06:17:23;;;;;;;;;;;;;;;20.45;81.01;98171.94;106064;1284;22564;-86
2022/07/30 06:20:03;;;;;;;;;;;;;;;20.48;81.14;98175.89;106063;1282;31351;-86
2022/07/30 06:22:33;;;;;;;;;;;;;;;20.52;81.02;98172.69;105850;1285;125307;-85
2022/07/30 06:25:02;;;;;;;;;;;;;;;20.57;80.53;98168.36;105813;1284;25254;-85
2022/07/30 06:27:28;;;;;;;;;;;;;;;20.61;80.57;98172.77;105860;1284;124760;-86
2022/07/30 06:29:54;;;;;;;;;;;;;;;20.66;80.15;98172.79;105844;1284;23312;-86
2022/07/30 06:32:20;;;;;;;;;;;;;;;20.65;79.77;98173.83;105739;1284;22624;-85
2022/07/30 06:34:47;;;;;;;;;;;;;;;20.66;80.26;98168.70;105848;1284;124597;-85
2022/07/30 06:37:13;;;;;;;;;;;;;;;20.72;79.86;98168.63;105965;1284;24398;-85
2022/07/30 06:39:41;;;;;;;;;;;;;;;20.72;79.68;98167.45;106070;1284;125071;-85
2022/07/30 06:42:27;;;;;;;;;;;;;;;20.75;79.78;98165.31;105617;1284;22604;-86
2022/07/30 06:45:08;;;;;;;;;;;;;;;20.78;79.77;98166.77;105486;1284;124500;-87
2022/07/30 06:47:48;;;;;;;;;;;;;;;20.90;80.04;98158.48;106829;1284;22560;-87
2022/07/30 06:50:14;;;;;;;;;;;;;;;20.95;79.40;98151.28;106179;1283;22551;-87
2022/07/30 06:52:40;;;;;;;;;;;;;;;20.99;79.31;98146.96;106341;1284;124353;-86
2022/07/30 06:55:07;;;;;;;;;;;;;;;21.02;79.35;98148.09;106752;1282;25262;-87
2022/07/30 06:57:40;;;;;;;;;;;;;;;21.04;79.02;98148.65;106421;1284;124944;-87
2022/07/30 07:00:09;;;;;;;;;;;;;;;21.06;78.82;98143.83;106840;1284;25346;-87
2022/07/30 07:02:41;;;;;;;;;;;;;;;21.11;78.88;98135.60;106077;1284;24052;-86
2022/07/30 07:05:12;;;;;;;;;;;;;;;21.18;78.90;98135.88;106537;1284;123942;-86
2022/07/30 07:07:40;;;;;;;;;;;;;;;21.23;78.83;98133.89;106431;1284;22600;-87
2022/07/30 07:10:07;;;;;;;;;;;;;;;21.29;78.62;98139.50;106629;1284;124023;-87
2022/07/30 07:12:56;;;;;;;;;;;;;;;21.34;78.33;98136.28;106321;1284;22710;-87
2022/07/30 07:15:23;;;;;;;;;;;;;;;21.38;78.15;98138.67;106463;1282;125283;-88
2022/07/30 07:17:49;;;;;;;;;;;;;;;21.42;78.01;98138.42;106624;1283;24370;-87
2022/07/30 07:20:26;;;;;;;;;;;;;;;21.50;77.84;98139.42;106503;1283;22611;-87
2022/07/30 07:22:58;;;;;;;;;;;;;;;21.57;77.70;98138.09;106084;1284;124343;-88
2022/07/30 07:25:24;;;;;;;;;;;;;;;21.67;77.54;98135.97;106557;1284;22572;-87
2022/07/30 07:27:52;;;;;;;;;;;;;;;21.76;77.54;98133.40;106409;1284;123957;-88
2022/07/30 07:30:18;;;;;;;;;;;;;;;21.83;77.06;98130.73;106924;1284;25548;-88
2022/07/30 07:32:45;;;;;;;;;;;;;;;21.87;77.00;98128.34;106083;1285;26059;-88
2022/07/30 07:35:12;;;;;;;;;;;;;;;21.86;76.40;98128.69;106120;1284;124259;-87
2022/07/30 07:37:40;;;;;;;;;;;;;;;21.84;76.38;98134.41;106235;1284;22549;-88
2022/07/30 07:40:07;;;;;;;;;;;;;;;21.89;76.70;98131.77;106282;1284;125189;-88
2022/07/30 07:42:38;;;;;;;;;;;;;;;21.96;76.76;98129.37;106865;1284;22679;-88
2022/07/30 07:45:04;;;;;;;;;;;;;;;22.03;76.72;98130.31;106445;1284;124160;-87
2022/07/30 07:47:47;;;;;;;;;;;;;;;22.05;76.49;98125.12;106307;1284;25387;-89
2022/07/30 07:50:18;;;;;;;;;;;;;;;22.07;76.14;98120.73;106370;1284;24365;-90
2022/07/30 07:52:45;;;;;;;;;;;;;;;22.12;76.23;98117.08;106164;1284;124154;-88
2022/07/30 07:55:12;;;;;;;;;;;;;;;22.18;76.25;98116.37;106122;1287;23335;-90
2022/07/30 07:57:41;;;;;;;;;;;;;;;22.28;76.02;98114.99;105653;1284;124889;-89
2022/07/30 08:00:09;;;;;;;;;;;;;;;22.38;75.88;98107.04;105344;1287;25348;-89
2022/07/30 08:02:46;;;;;;;;;;;;;;;22.51;75.59;98103.55;105496;1284;24415;-89
2022/07/30 08:05:12;;;;;;;;;;;;;;;22.58;74.81;98100.50;105541;1285;123979;-90
2022/07/30 08:07:50;;;;;;;;;;;;;;;22.60;73.78;98092.41;105918;1285;25428;-89
2022/07/30 08:10:29;;;;;;;;;;;;;;;22.63;73.66;98087.39;105678;1284;124488;-90
2022/07/30 08:13:08;;;;;;;;;;;;;;;22.68;73.06;98081.71;105522;1284;22566;-90
2022/07/30 08:15:49;;;;;;;;;;;;;;;22.69;72.51;98081.02;105388;1284;124489;-91
2022/07/30 08:18:28;;;;;;;;;;;;;;;22.72;72.51;98089.05;105684;1284;22541;-88
2022/07/30 08:21:14;;;;;;;;;;;;;;;22.75;71.83;98086.74;107063;1284;124150;-90
2022/07/30 08:23:41;;;;;;;;;;;;;;;22.75;71.45;98084.29;106231;1284;25374;-91
2022/07/30 08:26:07;;;;;;;;;;;;;;;22.74;71.50;98081.88;105908;1284;24236;-90
2022/07/30 08:28:35;;;;;;;;;;;;;;;22.71;71.51;98080.16;105725;1289;124322;-91
2022/07/30 08:31:01;;;;;;;;;;;;;;;22.73;71.43;98081.76;105686;1287;22601;-91
2022/07/30 08:33:27;;;;;;;;;;;;;;;22.79;71.83;98084.87;105861;1284;124917;-91
2022/07/30 08:35:53;;;;;;;;;;;;;;;22.88;71.72;98084.84;105806;1287;25318;-90
2022/07/30 08:38:19;;;;;;;;;;;;;;;22.96;71.59;98080.94;105916;1287;22572;-91
2022/07/30 08:40:46;;;;;;;;;;;;;;;23.04;71.84;98086.73;106087;1286;124084;-91
2022/07/30 08:43:14;;;;;;;;;;;;;;;23.11;71.21;98081.55;106477;1284;23404;-92
2022/07/30 08:45:43;;;;;;;;;;;;;;;23.19;71.20;98081.11;106441;1284;124352;-92
2022/07/30 08:48:26;;;;;;;;;;;;;;;23.26;70.47;98080.48;107016;1282;22658;-92
2022/07/30 08:50:58;;;;;;;;;;;;;;;23.32;70.16;98074.66;106934;1284;24214;-91
2022/07/30 08:53:34;;;;;;;;;;;;;;;23.39;70.03;98079.35;106797;1284;22634;-91
2022/07/30 08:56:01;;;;;;;;;;;;;;;23.46;69.58;98083.50;106308;1284;24266;-91
2022/07/30 08:58:33;;;;;;;;;;;;;;;23.51;69.41;98078.48;106064;1284;124367;-91
2022/07/30 09:01:00;;;;;;;;;;;;;;;23.62;69.08;98074.49;106569;1284;22489;-92
2022/07/30 09:03:28;;;;;;;;;;;;;;;23.76;68.31;98069.27;106155;1284;124571;-91
2022/07/30 09:06:00;;;;;;;;;;;;;;;23.88;67.12;98063.80;106239;1284;22616;-91
2022/07/30 09:08:46;;;;;;;;;;;;;;;24.01;66.27;98056.47;106803;1287;25346;-92
2022/07/30 09:11:53;;;;;;;;;;;;;;;24.05;65.35;98054.85;107664;1284;22559;-94
2022/07/30 09:14:22;;;;;;;;;;;;;;;24.05;65.00;98051.11;107302;1284;24015;-92
2022/07/30 09:16:55;;;;;;;;;;;;;;;24.11;65.14;98051.00;106429;1284;123405;-86
2022/07/30 09:19:21;;;;;;;;;;;;;;;24.26;65.69;98051.89;105617;1284;22550;-87
2022/07/30 09:21:58;;;;;;;;;;;;;;;24.46;65.39;98050.57;105795;1284;123879;-88
2022/07/30 09:24:44;;;;;;;;;;;;;;;24.61;64.33;98052.30;105873;1284;24549;-92
2022/07/30 09:27:25;;;;;;;;;;;;;;;24.64;63.14;98048.50;105814;1284;124189;-95
2022/07/30 09:30:15;;;;;;;;;;;;;;;24.69;62.72;98038.05;106049;1284;25299;-93
2022/07/30 09:33:15;;;;;;;;;;;;;;;24.77;62.38;98036.42;107005;1284;22557;-94
2022/07/30 09:36:06;;;;;;;;;;;;;;;24.85;62.29;98029.80;105696;1284;25312;-87
2022/07/30 09:39:00;;;;;;;;;;;;;;;24.92;62.03;98032.23;105655;1284;124265;-87
2022/07/30 09:41:40;;;;;;;;;;;;;;;24.94;62.01;98032.58;105917;1284;24586;-85
2022/07/30 09:44:09;;;;;;;;;;;;;;;24.97;61.35;98026.44;105978;1282;25394;-84
2022/07/30 09:46:45;;;;;;;;;;;;;;;24.97;61.43;98017.61;106082;1284;124072;-84
2022/07/30 09:49:21;;;;;;;;;;;;;;;25.04;61.49;98024.91;105925;1282;22473;-85
2022/07/30 09:51:47;;;;;;;;;;;;;;;25.21;61.91;98027.90;105880;1284;124339;-84
2022/07/30 09:54:15;;;;;;;;;;;;;;;25.39;61.76;98033.77;105579;1284;24167;-87
2022/07/30 09:56:45;;;;;;;;;;;;;;;25.47;61.15;98041.23;105665;1283;25221;-86
2022/07/30 09:59:26;;;;;;;;;;;;;;;25.51;60.31;98036.41;105900;1284;124049;-86
2022/07/30 10:01:53;;;;;;;;;;;;;;;25.58;59.86;98039.48;105685;1284;23018;-85
2022/07/30 10:04:33;;;;;;;;;;;;;;;25.67;60.05;98039.09;105736;1283;123903;-85
2022/07/30 10:07:15;;;;;;;;;;;;;;;25.84;60.62;98032.08;106225;1283;24231;-86
2022/07/30 10:09:44;;;;;;;;;;;;;;;26.12;60.65;98032.06;105802;1284;124316;-87
2022/07/30 10:12:12;;;;;;;;;;;;;;;26.37;59.98;98028.38;105667;1284;22532;-86
2022/07/30 10:14:45;;;;;;;;;;;;;;;26.56;59.25;98024.70;105603;1284;22573;-86
2022/07/30 10:17:13;;;;;;;;;;;;;;;26.75;58.95;98023.90;105887;1284;123938;-88
2022/07/30 10:19:56;;;;;;;;;;;;;;;26.99;57.91;98016.71;105840;1284;24343;-85
2022/07/30 10:22:26;;;;;;;;;;;;;;;27.14;57.70;98017.76;105671;1284;124539;-86
2022/07/30 10:25:05;;;;;;;;;;;;;;;27.34;57.20;98018.62;105966;1282;32584;-84
2022/07/30 10:27:46;;;;;;;;;;;;;;;27.57;56.53;98020.35;105846;1282;124338;-84
2022/07/30 10:30:23;;;;;;;;;;;;;;;27.82;56.09;98014.11;105770;1282;22617;-85
2022/07/30 10:32:50;;;;;;;;;;;;;;;27.99;55.27;98017.27;105843;1282;24337;-83
2022/07/30 10:35:31;;;;;;;;;;;;;;;28.00;54.15;98013.52;105758;1284;30171;-83
2022/07/30 10:37:58;;;;;;;;;;;;;;;27.96;54.60;98010.48;105653;1284;25371;-84
2022/07/30 10:40:29;;;;;;;;;;;;;;;28.04;54.98;98014.32;106028;1284;124079;-86
2022/07/30 10:43:09;;;;;;;;;;;;;;;28.13;54.18;98013.11;106047;1284;22536;-83
2022/07/30 10:45:56;;;;;;;;;;;;;;;28.22;54.39;98014.38;105778;1284;124098;-83
2022/07/30 10:48:23;;;;;;;;;;;;;;;28.35;54.28;98015.80;106149;1284;25382;-84
2022/07/30 10:50:51;;;;;;;;;;;;;;;28.42;53.80;98017.21;106391;1282;22558;-84
2022/07/30 10:53:32;;;;;;;;;;;;;;;28.46;52.96;98014.70;106104;1282;123919;-84
2022/07/30 10:56:12;;;;;;;;;;;;;;;28.44;53.82;98012.27;105704;1283;24439;-83
2022/07/30 10:58:52;;;;;;;;;;;;;;;28.29;53.18;98008.98;105861;1282;124818;-84
2022/07/30 11:01:18;;;;;;;;;;;;;;;28.19;54.23;98008.98;106192;1282;25369;-84
2022/07/30 11:04:05;;;;;;;;;;;;;;;28.10;54.89;98006.59;106148;1284;124219;-85
2022/07/30 11:06:31;;;;;;;;;;;;;;;28.15;54.58;98001.14;105933;1284;30672;-84
2022/07/30 11:08:57;;;;;;;;;;;;;;;28.25;54.88;97998.44;105764;1284;26506;-83
2022/07/30 11:11:24;;;;;;;;;;;;;;;28.43;55.05;97991.29;105741;1283;124033;-83
2022/07/30 11:13:50;;;;;;;;;;;;;;;28.67;55.01;97992.98;105668;1282;22566;-85
2022/07/30 11:16:19;;;;;;;;;;;;;;;28.90;54.15;97987.45;105471;1283;124401;-84
2022/07/30 11:18:59;;;;;;;;;;;;;;;29.04;53.34;97989.83;105943;1282;24431;-82
2022/07/30 11:21:25;;;;;;;;;;;;;;;29.08;52.84;97985.38;105859;1283;124332;-83
2022/07/30 11:23:52;;;;;;;;;;;;;;;29.09;51.88;97986.44;106299;1282;22590;-84
2022/07/30 11:26:47;;;;;;;;;;;;;;;29.10;51.86;97990.21;105820;1284;22541;-85
2022/07/30 11:29:39;;;;;;;;;;;;;;;29.11;51.47;97990.07;105814;1283;124161;-84
2022/07/30 11:32:19;;;;;;;;;;;;;;;29.12;52.37;97999.22;105810;1282;22576;-83
2022/07/30 11:34:46;;;;;;;;;;;;;;;29.12;52.11;97996.74;105793;1284;125017;-82
2022/07/30 11:37:17;;;;;;;;;;;;;;;29.08;52.24;98002.53;106003;1282;25408;-83
2022/07/30 11:39:52;;;;;;;;;;;;;;;29.04;52.45;97998.95;106050;1282;124943;-84
2022/07/30 11:42:37;;;;;;;;;;;;;;;29.00;52.10;97995.86;105892;1284;22622;-87
2022/07/30 11:45:12;;;;;;;;;;;;;;;28.91;52.48;97989.56;105702;1282;124092;-82
2022/07/30 11:47:38;;;;;;;;;;;;;;;28.79;53.08;97981.30;105942;1282;31762;-81
2022/07/30 11:50:05;;;;;;;;;;;;;;;28.61;53.28;97974.88;105627;1284;25309;-80
2022/07/30 11:52:31;;;;;;;;;;;;;;;28.44;53.72;97965.79;105872;1282;124299;-80
2022/07/30 11:54:57;;;;;;;;;;;;;;;28.33;54.06;97965.20;105431;1284;519605;-78
2022/07/30 11:57:37;;;;;;;;;;;;;;;28.30;54.21;97961.80;105656;1282;124798;-78
2022/07/30 12:00:04;;;;;;;;;;;;;;;28.29;54.41;97958.25;105835;1283;22704;-77
2022/07/30 12:02:40;;;;;;;;;;;;;;;28.28;54.39;97958.87;105709;1282;22555;-80
2022/07/30 12:05:07;;;;;;;;;;;;;;;28.24;53.98;97954.27;105644;1283;124191;-82
2022/07/30 12:07:34;;;;;;;;;;;;;;;28.18;53.92;97952.96;106108;1282;25296;-78
2022/07/30 12:10:15;;;;;;;;;;;;;;;28.14;54.20;97950.48;105544;1282;124076;-81
2022/07/30 12:12:41;;;;;;;;;;;;;;;28.13;54.46;97944.55;105860;1283;24394;-80
2022/07/30 12:15:08;;;;;;;;;;;;;;;28.11;54.37;97940.21;105959;1283;125150;-81
2022/07/30 12:17:41;;;;;;;;;;;;;;;28.06;54.59;97936.05;105714;1282;23355;-79
2022/07/30 12:20:17;;;;;;;;;;;;;;;28.04;54.76;97934.58;106167;1284;22560;-81
2022/07/30 12:22:44;;;;;;;;;;;;;;;27.95;54.85;97929.54;105917;1282;124050;-79
2022/07/30 12:25:10;;;;;;;;;;;;;;;27.91;55.18;97931.62;105678;1282;23229;-78
2022/07/30 12:27:37;;;;;;;;;;;;;;;27.87;54.73;97926.98;105568;1282;124295;-81
2022/07/30 12:30:04;;;;;;;;;;;;;;;27.86;54.90;97925.44;105943;1282;25359;-81
2022/07/30 12:32:30;;;;;;;;;;;;;;;27.91;55.08;97923.94;106207;1282;22642;-80
2022/07/30 12:34:56;;;;;;;;;;;;;;;27.97;55.24;97931.42;105777;1282;124014;-81
2022/07/30 12:37:23;;;;;;;;;;;;;;;28.02;54.81;97936.21;106025;1282;25365;-80
2022/07/30 12:40:03;;;;;;;;;;;;;;;28.03;54.30;97942.54;105640;1284;124041;-82
2022/07/30 12:42:29;;;;;;;;;;;;;;;27.96;54.90;97946.83;106177;1282;22756;-80
2022/07/30 12:44:55;;;;;;;;;;;;;;;27.86;54.68;97950.38;105893;1282;24425;-79
2022/07/30 12:47:23;;;;;;;;;;;;;;;27.78;55.22;97950.72;105854;1282;123941;-80
2022/07/30 12:49:50;;;;;;;;;;;;;;;27.68;55.35;97951.02;105747;1283;24224;-79
2022/07/30 12:52:20;;;;;;;;;;;;;;;27.55;55.80;97948.95;105746;1282;124232;-81
2022/07/30 12:55:01;;;;;;;;;;;;;;;27.39;56.10;97946.08;105658;1284;25383;-80